createdAt,value
2017-05-22T00:01:17.579Z,65.80
2017-05-22T00:03:45.894Z,65.90
2017-05-22T00:06:14.203Z,66.00
2017-05-22T00:08:42.634Z,66.00
2017-05-22T00:11:10.950Z,66.20
2017-05-22T00:13:39.569Z,66.40
2017-05-22T00:16:07.877Z,66.50
2017-05-22T00:18:36.196Z,66.70
2017-05-22T00:21:05.637Z,66.70
2017-05-22T00:23:33.948Z,66.90
2017-05-22T00:26:02.257Z,67.00
2017-05-22T00:28:30.605Z,67.10
2017-05-22T00:30:59.486Z,67.10
2017-05-22T00:33:27.801Z,67.20
2017-05-22T00:35:56.109Z,67.20
2017-05-22T00:38:24.873Z,67.20
2017-05-22T00:40:53.190Z,67.20
2017-05-22T00:43:21.497Z,67.40
2017-05-22T00:45:49.862Z,67.40
2017-05-22T00:48:18.177Z,67.50
2017-05-22T00:50:46.541Z,67.50
2017-05-22T00:53:14.410Z,67.40
2017-05-22T00:55:42.723Z,67.50
2017-05-22T00:58:11.041Z,67.50
2017-05-22T01:00:39.937Z,67.60
2017-05-22T01:03:08.257Z,67.70
2017-05-22T01:05:36.569Z,67.90
2017-05-22T01:08:04.925Z,67.80
2017-05-22T01:10:33.246Z,67.90
2017-05-22T01:13:02.020Z,68.10
2017-05-22T01:15:30.339Z,68.20
2017-05-22T01:17:58.646Z,68.20
2017-05-22T01:20:27.067Z,68.20
2017-05-22T01:22:55.380Z,68.30
2017-05-22T01:25:25.522Z,68.40
2017-05-22T01:27:53.837Z,68.60
2017-05-22T01:30:22.155Z,68.60
2017-05-22T01:32:51.117Z,68.80
2017-05-22T01:35:19.441Z,68.80
2017-05-22T01:37:47.751Z,68.90
2017-05-22T01:40:16.195Z,68.80
2017-05-22T01:42:44.549Z,68.90
2017-05-22T01:45:12.862Z,68.80
2017-05-22T01:47:41.498Z,68.90
2017-05-22T01:50:09.810Z,68.80
2017-05-22T01:52:38.137Z,68.90
2017-05-22T01:55:06.843Z,69.00
2017-05-22T01:57:35.158Z,69.00
2017-05-22T02:00:03.471Z,69.20
2017-05-22T02:02:32.343Z,69.20
2017-05-22T02:05:00.665Z,69.30
2017-05-22T02:07:29.076Z,69.30
2017-05-22T02:09:59.039Z,69.30
2017-05-22T02:12:27.349Z,69.40
2017-05-22T02:14:55.663Z,69.40
2017-05-22T02:17:24.505Z,69.50
2017-05-22T02:19:52.816Z,69.50
2017-05-22T02:22:21.129Z,69.60
2017-05-22T02:24:49.482Z,69.60
2017-05-22T02:27:18.505Z,69.60
2017-05-22T02:29:46.865Z,69.60
2017-05-22T02:32:15.243Z,69.60
2017-05-22T02:34:44.196Z,70.40
2017-05-22T02:37:12.553Z,69.60
2017-05-22T02:39:41.106Z,69.60
2017-05-22T02:42:09.493Z,70.60
2017-05-22T02:44:37.805Z,70.70
2017-05-22T02:47:06.158Z,70.90
2017-05-22T02:49:34.514Z,71.60
2017-05-22T02:52:03.185Z,71.00
2017-05-22T02:54:31.537Z,71.80
2017-05-22T02:56:59.853Z,71.30
2017-05-22T02:59:28.596Z,71.40
2017-05-22T03:01:56.910Z,71.60
2017-05-22T03:04:25.219Z,71.70
2017-05-22T03:06:53.613Z,71.90
2017-05-22T03:09:23.854Z,71.80
2017-05-22T03:11:52.165Z,71.90
2017-05-22T03:14:20.517Z,71.80
2017-05-22T03:16:48.941Z,71.90
2017-05-22T03:19:17.308Z,71.80
2017-05-22T03:21:45.674Z,71.80
2017-05-22T03:24:16.944Z,71.80
2017-05-22T03:26:45.309Z,71.90
2017-05-22T03:29:13.675Z,71.90
2017-05-22T03:31:42.365Z,72.30
2017-05-22T03:34:10.695Z,71.90
2017-05-22T03:36:39.361Z,72.00
2017-05-22T03:39:07.721Z,72.00
2017-05-22T03:41:36.074Z,72.00
2017-05-22T03:44:04.478Z,72.10
2017-05-22T03:46:32.841Z,72.10
2017-05-22T03:49:02.887Z,72.20
2017-05-22T03:51:31.200Z,72.40
2017-05-22T03:53:59.510Z,72.30
2017-05-22T03:56:27.902Z,72.40
2017-05-22T03:58:56.270Z,72.50
2017-05-22T04:01:24.630Z,72.40
2017-05-22T04:03:52.218Z,72.50
2017-05-22T04:06:21.213Z,72.80
2017-05-22T04:08:49.520Z,72.30
2017-05-22T04:11:17.876Z,72.10
2017-05-22T04:13:46.667Z,72.20
2017-05-22T04:16:15.024Z,72.30
2017-05-22T04:18:43.344Z,72.30
2017-05-22T04:21:11.833Z,72.30
2017-05-22T04:23:40.205Z,72.40
2017-05-22T04:26:08.981Z,72.50
2017-05-22T04:28:37.301Z,71.40
2017-05-22T04:31:05.689Z,71.40
2017-05-22T04:33:33.913Z,71.40
2017-05-22T04:36:02.280Z,71.50
2017-05-22T04:38:30.596Z,71.20
2017-05-22T04:40:59.264Z,71.00
2017-05-22T04:43:27.578Z,70.90
2017-05-22T04:45:55.933Z,70.60
2017-05-22T04:48:24.248Z,70.50
2017-05-22T04:50:54.293Z,70.40
2017-05-22T04:53:22.659Z,70.10
2017-05-22T04:55:50.990Z,69.90
2017-05-22T04:58:19.537Z,69.60
2017-05-22T05:00:47.905Z,69.50
2017-05-22T05:03:16.229Z,69.00
2017-05-22T05:05:44.913Z,68.80
2017-05-22T05:08:13.282Z,68.70
2017-05-22T05:10:41.649Z,68.50
2017-05-22T05:13:11.425Z,68.30
2017-05-22T05:15:39.785Z,67.90
2017-05-22T05:18:08.161Z,67.80
2017-05-22T05:20:38.111Z,67.60
2017-05-22T05:23:06.425Z,67.50
2017-05-22T05:25:34.735Z,67.40
2017-05-22T05:28:05.186Z,67.00
2017-05-22T05:30:33.550Z,66.80
2017-05-22T05:33:01.913Z,66.70
2017-05-22T05:35:32.131Z,66.50
2017-05-22T05:38:00.451Z,66.50
2017-05-22T05:40:28.900Z,66.60
2017-05-22T05:42:57.267Z,66.50
2017-05-22T05:45:25.635Z,66.50
2017-05-22T05:47:58.318Z,66.70
2017-05-22T05:50:26.688Z,66.60
2017-05-22T05:52:55.058Z,66.60
2017-05-22T05:55:23.473Z,66.60
2017-05-22T05:57:51.813Z,66.30
2017-05-22T06:00:20.522Z,66.10
2017-05-22T06:02:48.852Z,65.50
2017-05-22T06:05:17.213Z,65.60
2017-05-22T06:07:45.753Z,65.60
2017-05-22T06:10:14.137Z,65.20
2017-05-22T06:12:42.563Z,64.90
2017-05-22T06:15:11.040Z,64.80
2017-05-22T06:17:39.407Z,64.70
2017-05-22T06:20:07.729Z,64.50
2017-05-22T06:22:36.201Z,64.50
2017-05-22T06:25:03.797Z,64.40
2017-05-22T06:27:32.165Z,64.10
2017-05-22T06:30:00.525Z,64.10
2017-05-22T06:32:28.890Z,64.30
2017-05-22T06:34:57.361Z,63.90
2017-05-22T06:37:26.412Z,63.50
2017-05-22T06:39:55.321Z,63.40
2017-05-22T06:42:23.680Z,62.90
2017-05-22T06:44:52.526Z,62.70
2017-05-22T06:47:20.914Z,62.30
2017-05-22T06:49:49.234Z,61.90
2017-05-22T06:52:17.590Z,61.40
2017-05-22T06:54:45.921Z,61.20
2017-05-22T06:57:14.641Z,60.80
2017-05-22T06:59:42.970Z,60.50
2017-05-22T07:02:11.289Z,60.10
2017-05-22T07:04:39.845Z,59.90
2017-05-22T07:07:08.166Z,59.60
2017-05-22T07:09:36.564Z,59.30
2017-05-22T07:12:04.886Z,58.90
2017-05-22T07:14:33.294Z,58.90
2017-05-22T07:17:01.701Z,58.70
2017-05-22T07:19:30.022Z,58.60
2017-05-22T07:21:58.771Z,58.40
2017-05-22T07:24:27.096Z,58.40
2017-05-22T07:26:55.409Z,58.00
2017-05-22T07:29:23.810Z,58.00
2017-05-22T07:31:52.144Z,57.90
2017-05-22T07:34:20.830Z,57.60
2017-05-22T07:36:49.146Z,57.50
2017-05-22T07:39:17.502Z,57.30
2017-05-22T07:41:46.704Z,57.30
2017-05-22T07:44:15.029Z,57.30
2017-05-22T07:46:43.346Z,56.80
2017-05-22T07:49:11.705Z,56.50
2017-05-22T07:51:41.669Z,56.20
2017-05-22T07:54:10.030Z,56.70
2017-05-22T07:56:38.403Z,56.10
2017-05-22T07:59:07.114Z,56.00
2017-05-22T08:01:35.477Z,55.90
2017-05-22T08:04:03.850Z,56.00
2017-05-22T08:06:31.638Z,56.00
2017-05-22T08:08:59.961Z,55.50
2017-05-22T08:11:28.603Z,55.40
2017-05-22T08:13:56.975Z,55.00
2017-05-22T08:16:25.345Z,54.50
2017-05-22T08:18:54.058Z,54.30
2017-05-22T08:21:22.460Z,54.20
2017-05-22T08:23:50.833Z,54.20
2017-05-22T08:26:19.430Z,54.10
2017-05-22T08:28:47.810Z,54.00
2017-05-22T08:31:16.345Z,53.90
2017-05-22T08:33:45.162Z,53.30
2017-05-22T08:36:13.529Z,53.40
2017-05-22T08:38:41.870Z,53.40
2017-05-22T08:41:10.460Z,52.70
2017-05-22T08:43:38.802Z,52.10
2017-05-22T08:46:07.121Z,51.80
2017-05-22T08:48:35.627Z,51.40
2017-05-22T08:51:03.949Z,51.40
2017-05-22T08:53:32.777Z,51.60
2017-05-22T08:56:01.119Z,51.10
2017-05-22T08:58:29.434Z,50.30
2017-05-22T09:00:58.235Z,49.90
2017-05-22T09:03:26.592Z,49.60
2017-05-22T09:05:54.920Z,49.40
2017-05-22T09:08:23.286Z,49.60
2017-05-22T09:10:51.604Z,49.90
2017-05-22T09:13:20.001Z,49.90
2017-05-22T09:15:48.388Z,49.60
2017-05-22T09:18:17.087Z,49.20
2017-05-22T09:20:45.427Z,48.90
2017-05-22T09:23:18.674Z,49.00
2017-05-22T09:25:47.461Z,48.20
2017-05-22T09:28:15.779Z,48.00
2017-05-22T09:30:44.150Z,47.60
2017-05-22T09:33:12.781Z,47.30
2017-05-22T09:35:41.096Z,47.10
2017-05-22T09:38:09.606Z,46.90
2017-05-22T09:40:37.177Z,46.80
2017-05-22T09:43:05.651Z,46.40
2017-05-22T09:45:34.071Z,46.40
2017-05-22T09:48:02.433Z,46.20
2017-05-22T09:50:31.004Z,45.90
2017-05-22T09:52:59.379Z,45.70
2017-05-22T09:55:28.130Z,45.60
2017-05-22T09:57:56.462Z,45.30
2017-05-22T10:00:24.889Z,44.70
2017-05-22T10:02:53.335Z,44.30
2017-05-22T10:05:21.649Z,44.40
2017-05-22T10:07:50.065Z,44.40
2017-05-22T10:10:18.482Z,44.80
2017-05-22T10:12:46.852Z,45.10
2017-05-22T10:15:15.266Z,45.40
2017-05-22T10:17:43.642Z,45.20
2017-05-22T10:20:12.593Z,45.20
2017-05-22T10:22:40.903Z,44.40
2017-05-22T10:25:09.239Z,43.70
2017-05-22T10:27:37.605Z,43.60
2017-05-22T10:30:05.917Z,44.40
2017-05-22T10:32:34.642Z,43.60
2017-05-22T10:35:03.009Z,43.60
2017-05-22T10:37:31.369Z,43.30
2017-05-22T10:40:00.408Z,42.50
2017-05-22T10:42:29.246Z,42.40
2017-05-22T10:44:57.571Z,43.10
2017-05-22T10:47:25.938Z,43.10
2017-05-22T10:49:54.734Z,42.50
2017-05-22T10:52:23.113Z,42.10
2017-05-22T10:54:51.467Z,42.80
2017-05-22T10:57:19.570Z,42.80
2017-05-22T10:59:47.898Z,42.40
2017-05-22T11:02:16.736Z,42.10
2017-05-22T11:04:45.077Z,41.90
2017-05-22T11:07:13.438Z,42.00
2017-05-22T11:09:42.157Z,41.60
2017-05-22T11:12:10.483Z,41.60
2017-05-22T11:14:38.841Z,41.70
2017-05-22T11:17:11.293Z,41.70
2017-05-22T11:19:39.615Z,41.80
2017-05-22T11:22:07.929Z,41.40
2017-05-22T11:24:36.369Z,41.60
2017-05-22T11:27:04.750Z,41.80
2017-05-22T11:29:33.073Z,41.60
2017-05-22T11:32:01.476Z,41.20
2017-05-22T11:34:29.850Z,41.20
2017-05-22T11:36:58.697Z,40.60
2017-05-22T11:39:27.057Z,40.50
2017-05-22T11:41:55.419Z,40.90
2017-05-22T11:44:24.101Z,40.70
2017-05-22T11:46:52.453Z,40.80
2017-05-22T11:49:20.830Z,40.80
2017-05-22T11:51:49.648Z,41.10
2017-05-22T11:54:17.973Z,41.50
2017-05-22T11:56:46.337Z,41.50
2017-05-22T11:59:15.396Z,41.30
2017-05-22T12:01:43.720Z,41.10
2017-05-22T12:04:12.083Z,41.40
2017-05-22T12:06:40.493Z,41.90
2017-05-22T12:09:08.858Z,42.40
2017-05-22T12:11:37.218Z,42.80
2017-05-22T12:14:05.541Z,42.90
2017-05-22T12:16:34.662Z,42.70
2017-05-22T12:19:02.986Z,42.80
2017-05-22T12:21:31.347Z,43.00
2017-05-22T12:23:59.817Z,42.90
2017-05-22T12:26:28.181Z,42.10
2017-05-22T12:28:56.553Z,42.00
2017-05-22T12:31:25.001Z,41.90
2017-05-22T12:33:53.918Z,42.10
2017-05-22T12:36:22.277Z,41.60
2017-05-22T12:38:50.641Z,41.80
2017-05-22T12:41:19.062Z,41.90
2017-05-22T12:43:47.425Z,41.20
2017-05-22T12:46:15.789Z,41.40
2017-05-22T12:48:44.153Z,41.80
2017-05-22T12:51:12.988Z,41.40
2017-05-22T12:53:41.311Z,41.00
2017-05-22T12:56:09.634Z,40.40
2017-05-22T12:58:38.035Z,39.60
2017-05-22T13:01:07.095Z,39.60
2017-05-22T13:03:35.420Z,39.20
2017-05-22T13:06:03.783Z,38.70
2017-05-22T13:08:32.187Z,39.00
2017-05-22T13:11:00.515Z,39.00
2017-05-22T13:13:29.067Z,38.80
2017-05-22T13:15:56.619Z,38.70
2017-05-22T13:18:24.935Z,38.00
2017-05-22T13:20:53.355Z,37.60
2017-05-22T13:23:21.712Z,37.50
2017-05-22T13:25:50.031Z,38.40
2017-05-22T13:28:18.553Z,37.90
2017-05-22T13:30:46.922Z,37.20
2017-05-22T13:33:16.222Z,37.00
2017-05-22T13:35:44.583Z,36.80
2017-05-22T13:38:12.909Z,36.90
2017-05-22T13:40:41.421Z,37.30
2017-05-22T13:43:09.790Z,37.40
2017-05-22T13:45:38.142Z,37.00
2017-05-22T13:48:06.501Z,37.20
2017-05-22T13:50:35.194Z,37.50
2017-05-22T13:53:03.505Z,37.10
2017-05-22T13:55:31.822Z,36.80
2017-05-22T13:58:00.433Z,36.90
2017-05-22T14:00:29.226Z,36.80
2017-05-22T14:02:57.538Z,36.50
2017-05-22T14:05:25.855Z,36.70
2017-05-22T14:07:54.669Z,36.60
2017-05-22T14:10:22.982Z,35.80
2017-05-22T14:12:51.341Z,35.60
2017-05-22T14:15:24.975Z,35.00
2017-05-22T14:17:53.291Z,34.30
2017-05-22T14:20:21.601Z,34.20
2017-05-22T14:22:50.051Z,33.90
2017-05-22T14:25:18.393Z,33.20
2017-05-22T14:27:46.702Z,33.00
2017-05-22T14:30:15.219Z,32.70
2017-05-22T14:32:43.535Z,32.60
2017-05-22T14:35:12.298Z,32.60
2017-05-22T14:37:40.609Z,32.40
2017-05-22T14:40:09.317Z,32.80
2017-05-22T14:42:37.687Z,32.80
2017-05-22T14:45:05.997Z,32.70
2017-05-22T14:47:34.717Z,32.80
2017-05-22T14:50:03.037Z,32.80
2017-05-22T14:52:31.401Z,33.20
2017-05-22T14:55:00.117Z,33.30
2017-05-22T14:57:28.472Z,33.10
2017-05-22T14:59:56.787Z,32.70
2017-05-22T15:02:25.337Z,32.50
2017-05-22T15:04:53.740Z,32.50
2017-05-22T15:07:22.165Z,32.60
2017-05-22T15:09:50.529Z,32.00
2017-05-22T15:12:18.912Z,31.70
2017-05-22T15:14:47.420Z,31.60
2017-05-22T15:17:15.726Z,31.40
2017-05-22T15:19:44.146Z,31.20
2017-05-22T15:22:12.525Z,31.20
2017-05-22T15:24:40.896Z,30.70
2017-05-22T15:27:08.985Z,30.70
2017-05-22T15:29:37.319Z,30.20
2017-05-22T15:32:05.874Z,29.90
2017-05-22T15:34:34.813Z,29.80
2017-05-22T15:37:03.168Z,29.90
2017-05-22T15:39:31.538Z,29.70
2017-05-22T15:41:59.941Z,29.70
2017-05-22T15:44:28.311Z,29.40
2017-05-22T15:46:56.621Z,29.10
2017-05-22T15:49:30.517Z,28.80
2017-05-22T15:51:58.836Z,28.70
2017-05-22T15:54:27.197Z,28.70
2017-05-22T15:56:55.957Z,28.70
2017-05-22T15:59:24.325Z,28.80
2017-05-22T16:01:52.695Z,28.60
2017-05-22T16:04:21.151Z,28.70
2017-05-22T16:06:49.665Z,28.60
2017-05-22T16:09:18.030Z,28.70
2017-05-22T16:11:46.397Z,28.50
2017-05-22T16:14:15.081Z,28.50
2017-05-22T16:16:43.408Z,28.50
2017-05-22T16:19:11.769Z,28.50
2017-05-22T16:21:40.225Z,28.50
2017-05-22T16:24:08.606Z,28.20
2017-05-22T16:26:36.942Z,28.00
2017-05-22T16:29:05.361Z,27.90
2017-05-22T16:31:33.737Z,27.80
2017-05-22T16:34:03.187Z,28.20
2017-05-22T16:36:31.502Z,28.30
2017-05-22T16:38:59.924Z,28.50
2017-05-22T16:41:29.245Z,28.30
2017-05-22T16:43:57.610Z,28.20
2017-05-22T16:46:25.936Z,28.00
2017-05-22T16:48:54.383Z,27.60
2017-05-22T16:51:22.738Z,27.50
2017-05-22T16:53:51.046Z,27.60
2017-05-22T16:56:19.882Z,28.00
2017-05-22T16:58:48.251Z,28.30
2017-05-22T17:01:16.605Z,28.50
2017-05-22T17:03:45.138Z,28.80
2017-05-22T17:06:13.451Z,29.00
2017-05-22T17:08:41.767Z,29.40
2017-05-22T17:11:10.398Z,29.60
2017-05-22T17:13:38.713Z,29.90
2017-05-22T17:16:07.076Z,30.30
2017-05-22T17:18:35.750Z,30.80
2017-05-22T17:21:04.063Z,31.40
2017-05-22T17:23:32.417Z,32.60
2017-05-22T17:26:01.079Z,32.30
2017-05-22T17:28:29.833Z,32.60
2017-05-22T17:30:58.145Z,32.60
2017-05-22T17:33:26.460Z,32.80
2017-05-22T17:35:55.229Z,33.10
2017-05-22T17:38:23.550Z,33.60
2017-05-22T17:40:52.209Z,34.00
2017-05-22T17:43:25.701Z,34.20
2017-05-22T17:45:54.087Z,34.80
2017-05-22T17:48:26.620Z,35.10
2017-05-22T17:50:55.802Z,35.30
2017-05-22T17:53:24.123Z,35.90
2017-05-22T17:55:52.921Z,36.60
2017-05-22T17:58:21.277Z,37.10
2017-05-22T18:00:49.604Z,37.30
2017-05-22T18:03:18.132Z,37.40
2017-05-22T18:05:46.513Z,37.60
2017-05-22T18:08:14.937Z,37.60
2017-05-22T18:10:43.310Z,37.50
2017-05-22T18:13:11.673Z,37.90
2017-05-22T18:15:40.437Z,38.20
2017-05-22T18:18:08.819Z,38.00
2017-05-22T18:20:37.191Z,38.00
2017-05-22T18:23:05.679Z,38.40
2017-05-22T18:25:34.057Z,38.40
2017-05-22T18:28:02.805Z,38.50
2017-05-22T18:30:31.134Z,38.60
2017-05-22T18:32:59.458Z,38.90
2017-05-22T18:35:27.916Z,39.20
2017-05-22T18:37:56.005Z,39.30
2017-05-22T18:40:24.333Z,39.90
2017-05-22T18:42:53.105Z,40.30
2017-05-22T18:45:21.433Z,40.80
2017-05-22T18:47:49.749Z,41.00
2017-05-22T18:50:18.190Z,41.30
2017-05-22T18:52:46.553Z,41.30
2017-05-22T18:55:18.572Z,41.70
2017-05-22T18:57:46.938Z,42.00
2017-05-22T19:00:17.121Z,42.30
2017-05-22T19:02:45.447Z,42.60
2017-05-22T19:05:13.779Z,42.90
2017-05-22T19:07:46.481Z,43.20
2017-05-22T19:10:14.843Z,43.40
2017-05-22T19:12:43.168Z,43.70
2017-05-22T19:15:11.966Z,44.00
2017-05-22T19:17:40.291Z,44.30
2017-05-22T19:20:08.648Z,44.40
2017-05-22T19:22:37.205Z,44.60
2017-05-22T19:25:05.619Z,44.80
2017-05-22T19:27:33.989Z,45.10
2017-05-22T19:30:02.379Z,45.50
2017-05-22T19:32:30.701Z,45.70
2017-05-22T19:34:59.074Z,46.10
2017-05-22T19:37:32.758Z,46.30
2017-05-22T19:40:01.757Z,46.50
2017-05-22T19:42:30.162Z,46.60
2017-05-22T19:44:58.530Z,46.70
2017-05-22T19:47:26.892Z,47.00
2017-05-22T19:49:55.621Z,47.10
2017-05-22T19:52:23.941Z,47.20
2017-05-22T19:54:52.254Z,47.30
2017-05-22T19:57:20.145Z,47.40
2017-05-22T19:59:48.510Z,47.80
2017-05-22T20:02:16.882Z,48.00
2017-05-22T20:04:45.242Z,48.80
2017-05-22T20:07:13.607Z,48.50
2017-05-22T20:09:41.488Z,48.50
2017-05-22T20:12:09.798Z,49.00
2017-05-22T20:14:38.361Z,49.30
2017-05-22T20:17:06.735Z,49.70
2017-05-22T20:19:35.062Z,50.00
2017-05-22T20:22:03.465Z,50.30
2017-05-22T20:24:31.842Z,50.60
2017-05-22T20:27:00.418Z,50.90
2017-05-22T20:29:28.786Z,51.20
2017-05-22T20:31:57.731Z,52.20
2017-05-22T20:34:26.088Z,51.80
2017-05-22T20:36:54.459Z,52.20
2017-05-22T20:39:23.269Z,52.50
2017-05-22T20:41:56.839Z,52.70
2017-05-22T20:44:25.194Z,53.00
2017-05-22T20:46:54.189Z,53.20
2017-05-22T20:49:22.509Z,53.50
2017-05-22T20:51:50.879Z,53.60
2017-05-22T20:54:19.325Z,53.90
2017-05-22T20:56:47.695Z,54.00
2017-05-22T20:59:16.019Z,54.10
2017-05-22T21:01:44.473Z,54.30
2017-05-22T21:04:12.782Z,54.40
2017-05-22T21:06:41.589Z,54.40
2017-05-22T21:09:09.906Z,54.40
2017-05-22T21:11:38.213Z,54.50
2017-05-22T21:14:07.849Z,54.60
2017-05-22T21:16:36.171Z,55.50
2017-05-22T21:19:04.529Z,55.10
2017-05-22T21:21:32.898Z,55.40
2017-05-22T21:24:01.477Z,55.60
2017-05-22T21:26:29.797Z,55.80
2017-05-22T21:28:58.117Z,55.90
2017-05-22T21:31:26.971Z,56.00
2017-05-22T21:33:55.609Z,56.20
2017-05-22T21:36:23.973Z,56.20
2017-05-22T21:38:52.605Z,56.30
2017-05-22T21:41:20.963Z,56.70
2017-05-22T21:43:49.276Z,56.90
2017-05-22T21:46:18.020Z,57.10
2017-05-22T21:48:46.382Z,57.40
2017-05-22T21:51:14.710Z,57.50
2017-05-22T21:53:43.303Z,57.80
2017-05-22T21:56:11.623Z,57.80
2017-05-22T21:58:40.138Z,58.00
2017-05-22T22:01:08.521Z,58.20
2017-05-22T22:03:36.889Z,58.30
2017-05-22T22:06:05.296Z,58.30
2017-05-22T22:08:33.669Z,58.50
2017-05-22T22:11:06.150Z,58.50
2017-05-22T22:13:34.514Z,58.50
2017-05-22T22:16:02.890Z,58.40
2017-05-22T22:18:32.521Z,58.40
2017-05-22T22:21:00.878Z,58.30
2017-05-22T22:23:29.249Z,58.50
2017-05-22T22:25:57.657Z,58.30
2017-05-22T22:28:27.777Z,58.40
2017-05-22T22:30:56.156Z,58.30
2017-05-22T22:33:24.570Z,58.40
2017-05-22T22:35:53.052Z,58.40
2017-05-22T22:38:21.909Z,58.40
2017-05-22T22:40:50.242Z,58.70
2017-05-22T22:43:18.561Z,58.70
2017-05-22T22:45:46.995Z,58.70
2017-05-22T22:48:15.322Z,58.80
2017-05-22T22:50:43.681Z,58.80
2017-05-22T22:53:12.045Z,58.80
2017-05-22T22:55:40.405Z,59.00
2017-05-22T22:58:09.123Z,59.10
2017-05-22T23:00:37.509Z,59.30
2017-05-22T23:03:05.877Z,59.60
2017-05-22T23:05:34.340Z,59.60
2017-05-22T23:08:02.710Z,59.70
2017-05-22T23:10:30.641Z,59.70
2017-05-22T23:12:59.004Z,60.30
2017-05-22T23:15:27.331Z,60.60
2017-05-22T23:17:55.702Z,61.00
2017-05-22T23:20:24.021Z,60.90
2017-05-22T23:22:53.153Z,60.80
2017-05-22T23:25:21.520Z,60.70
2017-05-22T23:27:49.852Z,60.70
2017-05-22T23:30:18.210Z,60.70
2017-05-22T23:32:46.578Z,60.70
2017-05-22T23:35:15.100Z,60.50
2017-05-22T23:37:43.430Z,60.60
2017-05-22T23:40:11.799Z,60.70
2017-05-22T23:42:40.596Z,60.70
2017-05-22T23:45:08.960Z,61.50
2017-05-22T23:47:37.865Z,60.70
2017-05-22T23:50:06.241Z,60.80
2017-05-22T23:52:34.565Z,60.80
2017-05-22T23:55:02.970Z,60.90
2017-05-22T23:57:31.339Z,61.00
